Time;durP1;ratioP1;P1;durP2;ratioP2;P2;SDS_P1;SDS_P2;PMS_P1;PMS_P2;Temp;Humidity;BMP_temperature;BMP_pressure;BME280_temperature;BME280_humidity;BME280_pressure;Samples;Min_cycle;Max_cycle;Signal;HPM_P1;HPM_P2
2022/07/25 00:14:28;;;;;;;4.93;2.53;;;;;;;16.96;55.68;100404.56;30741069;28;97228;-71
2022/07/25 00:29:28;;;;;;;5.43;2.75;;;;;;;16.70;57.00;100392.75;30745937;28;96802;-71
2022/07/25 00:44:31;;;;;;;7.20;3.05;;;;;;;16.50;57.99;100381.97;30745461;28;96730;-68
2022/07/25 00:59:31;;;;;;;6.27;2.30;;;;;;;16.26;58.97;100383.38;30743479;28;96905;-71
2022/07/25 01:14:32;;;;;;;4.07;2.65;;;;;;;15.96;59.87;100377.50;30742401;28;96637;-71
2022/07/25 01:29:32;;;;;;;4.72;2.60;;;;;;;15.73;61.18;100365.16;30739802;28;96593;-67
2022/07/25 01:44:33;;;;;;;5.07;2.92;;;;;;;15.53;61.82;100351.66;30739336;28;97149;-70
2022/07/25 01:59:37;;;;;;;5.18;2.63;;;;;;;15.34;62.66;100335.25;30737818;28;96832;-68
2022/07/25 02:14:38;;;;;;;6.63;3.10;;;;;;;15.11;62.98;100335.50;30736016;28;97018;-70
2022/07/25 02:29:38;;;;;;;7.28;2.90;;;;;;;14.95;63.91;100330.44;30734697;28;96690;-69
2022/07/25 02:44:39;;;;;;;8.48;3.30;;;;;;;14.69;64.55;100335.44;30733267;28;97635;-71
2022/07/25 02:59:39;;;;;;;8.10;3.05;;;;;;;14.51;64.91;100327.81;30731122;28;97559;-68
2022/07/25 03:14:39;;;;;;;5.00;2.70;;;;;;;14.45;65.61;100323.22;30730779;28;96809;-67
2022/07/25 03:29:40;;;;;;;4.40;3.10;;;;;;;14.37;66.06;100316.13;30730878;28;96793;-68
2022/07/25 03:44:41;;;;;;;8.38;3.47;;;;;;;14.43;66.63;100306.50;30733794;28;96870;-68
2022/07/25 03:59:41;;;;;;;6.68;3.03;;;;;;;14.63;66.73;100303.19;30744745;28;97294;-69
2022/07/25 04:14:41;;;;;;;6.63;2.97;;;;;;;14.93;66.80;100297.66;30745886;28;97109;-66
2022/07/25 04:29:42;;;;;;;5.30;3.08;;;;;;;15.15;66.63;100279.63;30744324;28;97537;-67
2022/07/25 04:44:42;;;;;;;7.68;3.47;;;;;;;15.49;65.66;100262.63;30742101;28;96837;-67
2022/07/25 04:59:43;;;;;;;4.65;2.83;;;;;;;15.97;65.00;100259.06;30738584;28;96816;-67
2022/07/25 05:14:43;;;;;;;6.47;2.88;;;;;;;16.60;64.02;100249.78;30730324;28;97759;-66
2022/07/25 05:29:43;;;;;;;4.53;2.75;;;;;;;17.20;62.51;100232.72;30724560;28;97644;-71
2022/07/25 05:44:44;;;;;;;3.22;2.30;;;;;;;17.83;60.73;100215.81;30734252;28;97288;-67
2022/07/25 05:59:44;;;;;;;4.78;2.33;;;;;;;18.57;58.64;100226.84;30727396;28;97331;-67
2022/07/25 06:14:45;;;;;;;5.03;2.20;;;;;;;19.73;55.67;100234.22;30734031;28;96890;-67
2022/07/25 06:29:45;;;;;;;4.25;2.10;;;;;;;20.90;52.32;100209.44;30732476;28;97144;-69
2022/07/25 06:44:45;;;;;;;3.22;2.20;;;;;;;21.54;49.15;100192.31;30731261;28;97390;-66
2022/07/25 06:59:46;;;;;;;5.07;1.90;;;;;;;22.53;46.39;100184.75;30728719;28;96908;-67
2022/07/25 07:14:46;;;;;;;3.83;1.97;;;;;;;23.85;41.92;100159.31;30728652;28;97325;-68
2022/07/25 07:29:47;;;;;;;5.15;1.73;;;;;;;24.92;38.41;100152.09;30749400;28;96735;-67
2022/07/25 07:44:47;;;;;;;2.25;1.52;;;;;;;25.83;36.21;100130.75;30745949;28;97324;-69
2022/07/25 07:59:47;;;;;;;4.40;2.40;;;;;;;26.00;34.83;100114.91;30742346;28;97506;-69
2022/07/25 08:14:48;;;;;;;1.98;1.38;;;;;;;26.58;33.00;100121.88;30743164;28;98569;-68
2022/07/25 08:29:48;;;;;;;3.67;1.33;;;;;;;27.47;30.88;100102.03;30738981;28;100062;-70
2022/07/25 08:44:56;;;;;;;6.25;1.50;;;;;;;27.72;28.80;100099.38;30738563;28;97191;-68
2022/07/25 08:59:57;;;;;;;;;;;;;;;27.84;28.07;100084.22;30781376;28;97550;-68
2022/07/25 09:14:58;;;;;;;5.77;1.00;;;;;;;28.35;27.67;100071.91;30856438;28;96829;-71
2022/07/25 09:29:58;;;;;;;3.10;1.40;;;;;;;28.91;26.16;100052.28;30859966;28;96891;-67
2022/07/25 09:45:11;;;;;;;1.30;1.00;;;;;;;29.37;26.51;100046.97;30856835;28;96759;-70
2022/07/25 10:00:14;;;;;;;3.63;1.20;;;;;;;30.09;26.20;100019.34;30854161;28;96816;-69
2022/07/25 10:15:14;;;;;;;3.20;1.27;;;;;;;30.08;25.59;100012.22;30825110;28;97458;-73
2022/07/25 10:30:22;;;;;;;1.95;1.30;;;;;;;30.17;24.82;99985.66;30730842;28;96767;-68
2022/07/25 10:45:25;;;;;;;2.97;1.17;;;;;;;30.85;24.13;99967.38;30731368;28;97912;-66
2022/07/25 11:00:26;;;;;;;1.90;1.20;;;;;;;30.88;23.87;99952.19;30730376;28;97501;-68
2022/07/25 11:15:27;;;;;;;2.15;0.90;;;;;;;30.75;24.31;99928.31;30729054;28;97369;-69
2022/07/25 11:30:28;;;;;;;2.30;1.13;;;;;;;31.66;23.41;99907.00;30727556;28;96970;-68
2022/07/25 11:45:36;;;;;;;4.20;1.77;;;;;;;31.97;22.83;99881.31;30727116;28;97223;-69
2022/07/25 12:00:47;;;;;;;1.40;1.10;;;;;;;32.23;22.34;99865.66;30725862;28;96762;-68
2022/07/25 12:15:47;;;;;;;2.10;1.10;;;;;;;31.65;22.78;99853.88;30742566;28;97420;-72
2022/07/25 12:30:48;;;;;;;2.20;1.30;;;;;;;32.13;22.49;99818.28;30743252;28;98068;-69
2022/07/25 12:45:48;;;;;;;1.47;1.00;;;;;;;31.82;22.86;99795.28;30733992;28;97360;-70
2022/07/25 13:00:49;;;;;;;2.78;1.33;;;;;;;32.05;23.04;99773.06;30738854;28;96902;-69
2022/07/25 13:15:49;;;;;;;4.72;1.50;;;;;;;32.18;22.78;99747.31;30737917;28;97588;-69
2022/07/25 13:30:49;;;;;;;1.92;1.17;;;;;;;31.82;23.52;99706.34;30734694;28;102889;-69
2022/07/25 13:45:50;;;;;;;2.25;1.67;;;;;;;31.99;23.30;99700.81;30735059;28;96954;-73
2022/07/25 14:00:50;;;;;;;1.90;1.13;;;;;;;31.88;23.00;99672.00;30734365;28;96658;-70
2022/07/25 14:15:51;;;;;;;3.50;0.90;;;;;;;31.79;23.20;99662.94;30733210;28;96919;-69
2022/07/25 14:30:52;;;;;;;1.97;1.00;;;;;;;31.86;23.35;99657.72;30726071;28;97316;-68
2022/07/25 14:45:53;;;;;;;3.67;1.10;;;;;;;31.94;23.16;99620.31;30722417;28;98763;-72
2022/07/25 15:00:53;;;;;;;1.30;0.90;;;;;;;31.89;23.16;99596.50;30724280;28;97169;-69
2022/07/25 15:15:54;;;;;;;1.83;1.63;;;;;;;31.59;23.31;99581.78;30722496;28;97647;-69
2022/07/25 15:30:55;;;;;;;2.10;0.90;;;;;;;31.60;23.03;99562.22;30711774;28;98101;-69
2022/07/25 15:45:55;;;;;;;3.75;1.10;;;;;;;31.59;23.58;99552.38;30730085;28;97460;-73
2022/07/25 16:00:55;;;;;;;3.70;1.10;;;;;;;31.36;23.91;99525.00;30745995;28;97032;-68
2022/07/25 16:15:56;;;;;;;1.63;1.10;;;;;;;31.21;23.91;99517.28;30746820;28;97154;-67
2022/07/25 16:30:56;;;;;;;2.25;1.02;;;;;;;31.10;24.08;99510.47;30745156;28;96953;-71
2022/07/25 16:45:57;;;;;;;1.83;1.40;;;;;;;31.04;23.88;99496.91;30742482;28;97566;-70
2022/07/25 17:00:57;;;;;;;3.30;1.23;;;;;;;30.86;24.40;99487.78;30739977;28;96579;-69
2022/07/25 17:15:58;;;;;;;1.88;1.38;;;;;;;30.69;24.80;99482.31;30740042;28;96638;-70
2022/07/25 17:30:58;;;;;;;2.38;1.10;;;;;;;30.53;25.02;99462.72;30736586;28;96740;-68
2022/07/25 17:45:59;;;;;;;1.95;1.20;;;;;;;30.17;25.50;99452.81;30737806;28;101846;-71
2022/07/25 18:00:59;;;;;;;4.82;1.67;;;;;;;29.74;26.17;99435.00;30736130;28;97439;-68
2022/07/25 18:15:59;;;;;;;8.07;1.88;;;;;;;29.12;27.48;99431.13;30735515;28;96670;-67
2022/07/25 18:31:01;;;;;;;6.47;1.95;;;;;;;28.48;28.42;99412.09;30733651;28;96793;-69
2022/07/25 18:46:01;;;;;;;3.30;1.70;;;;;;;27.90;29.15;99422.59;30729790;28;97019;-71
2022/07/25 19:01:02;;;;;;;4.93;1.85;;;;;;;27.31;30.30;99425.88;30728787;28;97346;-68
2022/07/25 19:16:03;;;;;;;9.95;2.13;;;;;;;26.74;31.25;99441.56;30745100;28;97389;-67
2022/07/25 19:31:03;;;;;;;7.82;2.10;;;;;;;26.36;31.87;99439.59;30760056;28;96814;-69
2022/07/25 19:46:04;;;;;;;10.27;2.40;;;;;;;26.07;32.15;99431.53;30759547;28;97142;-68
2022/07/25 20:01:04;;;;;;;4.00;2.13;;;;;;;25.73;32.84;99427.00;30759391;28;97165;-68
2022/07/25 20:16:05;;;;;;;6.45;2.10;;;;;;;25.36;33.55;99412.09;30758515;28;97551;-67
2022/07/25 20:31:05;;;;;;;7.63;2.22;;;;;;;24.96;34.07;99414.84;30742511;28;96916;-69
2022/07/25 20:46:06;;;;;;;8.38;2.10;;;;;;;24.58;35.01;99393.59;30730249;28;96829;-70
2022/07/25 21:01:07;;;;;;;6.53;2.30;;;;;;;24.18;36.10;99379.16;30744071;28;97377;-70
2022/07/25 21:16:07;;;;;;;8.60;2.63;;;;;;;23.83;36.76;99367.31;30743778;28;97130;-69
2022/07/25 21:31:08;;;;;;;2.97;1.95;;;;;;;23.90;37.06;99365.13;30742522;28;100056;-71
2022/07/25 21:46:08;;;;;;;;;;;;;;;23.91;37.30;99372.22;30740749;28;97431;-70
2022/07/25 22:01:08;;;;;;;7.35;2.10;;;;;;;23.72;37.71;99349.44;30739229;28;96693;-67
2022/07/25 22:16:09;;;;;;;5.25;2.10;;;;;;;23.48;38.25;99331.00;30735412;28;97306;-69
2022/07/25 22:31:09;;;;;;;3.28;2.33;;;;;;;23.32;39.28;99298.47;30736884;28;96830;-71
2022/07/25 22:46:10;;;;;;;8.20;2.13;;;;;;;23.42;39.26;99296.81;30735596;28;97199;-70
2022/07/25 23:01:10;;;;;;;5.87;2.60;;;;;;;23.26;40.13;99288.69;30731606;28;96835;-70
2022/07/25 23:16:11;;;;;;;4.97;2.60;;;;;;;23.04;40.98;99296.34;30733207;28;96677;-71
2022/07/25 23:31:11;;;;;;;5.55;2.10;;;;;;;22.67;42.41;99292.03;30731646;28;96798;-68
2022/07/25 23:46:12;;;;;;;6.90;2.40;;;;;;;22.50;43.70;99282.28;30731316;28;96551;-70
